LFRS/NTE METAR and TAF weather

Enter ICAO airport designator
Station Type Date Time Source
LFRS METAR 2021/07/26 17:00 UTC NOAA

LFRS 261700Z AUTO 25011KT 9999 FEW032 SCT042 21/14 Q1014 NOSIG


Station Type Date Time Source
LFRS Decoded METAR 2021/07/26 17:00 UTC NOAA

Nantes, France (LFRS) 47-10N 001-36W 27M
Jul 26, 2021 - 01:00 PM EDT / 2021.07.26 1700 UTC
Wind: from the WSW (250 degrees) at 13 MPH (11 KT):0
Visibility: greater than 7 mile(s):0
Sky conditions: partly cloudy
Temperature: 69 F (21 C)
Dew Point: 57 F (14 C)
Relative Humidity: 64%
Pressure (altimeter): 29.94 in. Hg (1014 hPa)
ob: LFRS 261700Z AUTO 25011KT 9999 FEW032 SCT042 21/14 Q1014 NOSIG
cycle: 17

Station Type Date Time Source
LFRS TAF 2021/07/26 12:21 UTC NOAA

TAF LFRS 261100Z 2612/2718 26010KT 9999 BKN025
TEMPO 2620/2705 BKN010
TEMPO 2701/2705 4500 -RA
TEMPO 2705/2714 3000 SHRA BKN012 BKN030CB PROB30
TEMPO 2711/2714 TSRA

Example: see airport list